createdAt,value
2018-01-08T00:00:11.142Z,6.80
2018-01-08T00:03:16.147Z,6.80
2018-01-08T00:06:21.422Z,6.70
2018-01-08T00:09:26.847Z,6.70
2018-01-08T00:12:32.388Z,6.80
2018-01-08T00:15:38.349Z,6.80
2018-01-08T00:18:43.944Z,6.70
2018-01-08T00:21:49.314Z,6.70
2018-01-08T00:24:54.171Z,6.80
2018-01-08T00:27:59.565Z,6.70
2018-01-08T00:31:06.550Z,6.70
2018-01-08T00:34:11.669Z,6.70
2018-01-08T00:37:16.888Z,6.70
2018-01-08T00:40:22.646Z,6.70
2018-01-08T00:43:27.476Z,6.70
2018-01-08T00:46:32.670Z,6.70
2018-01-08T00:49:39.607Z,6.70
2018-01-08T00:52:45.755Z,6.70
2018-01-08T00:55:51.062Z,6.70
2018-01-08T00:58:56.180Z,6.70
2018-01-08T01:02:02.594Z,6.70
2018-01-08T01:05:08.306Z,6.70
2018-01-08T01:08:13.226Z,6.60
2018-01-08T01:11:18.505Z,6.60
2018-01-08T01:14:24.467Z,6.60
2018-01-08T01:17:30.113Z,6.60
2018-01-08T01:20:34.814Z,6.60
2018-01-08T01:23:40.350Z,6.60
2018-01-08T01:26:46.901Z,6.60
2018-01-08T01:29:52.637Z,6.60
2018-01-08T01:32:58.182Z,6.60
2018-01-08T01:36:03.334Z,6.70
2018-01-08T01:39:09.033Z,6.60
2018-01-08T01:42:14.609Z,6.70
2018-01-08T01:45:19.985Z,6.60
2018-01-08T01:48:25.553Z,6.70
2018-01-08T01:51:31.118Z,6.60
2018-01-08T01:54:36.618Z,6.70
2018-01-08T01:57:42.858Z,6.70
2018-01-08T02:00:47.834Z,6.60
2018-01-08T02:03:53.074Z,6.60
2018-01-08T02:06:57.992Z,6.60
2018-01-08T02:10:02.851Z,6.60
2018-01-08T02:13:07.966Z,6.70
2018-01-08T02:16:13.677Z,6.70
2018-01-08T02:19:21.011Z,6.70
2018-01-08T02:22:26.813Z,6.70
2018-01-08T02:25:32.149Z,6.70
2018-01-08T02:28:38.329Z,6.70
2018-01-08T02:31:43.116Z,6.70
2018-01-08T02:34:48.250Z,6.70
2018-01-08T02:37:53.581Z,6.70
2018-01-08T02:40:58.631Z,6.70
2018-01-08T02:44:03.609Z,6.70
2018-01-08T02:47:10.270Z,6.70
2018-01-08T02:50:15.311Z,6.70
2018-01-08T02:53:20.911Z,6.70
2018-01-08T02:56:26.587Z,6.70
2018-01-08T02:59:31.409Z,6.70
2018-01-08T03:02:38.043Z,6.70
2018-01-08T03:05:43.663Z,6.70
2018-01-08T03:08:48.622Z,6.70
2018-01-08T03:11:54.693Z,6.70
2018-01-08T03:14:59.539Z,6.70
2018-01-08T03:18:05.258Z,6.70
2018-01-08T03:21:10.366Z,6.80
2018-01-08T03:24:15.790Z,6.70
2018-01-08T03:27:21.685Z,6.70
2018-01-08T03:30:26.835Z,6.70
2018-01-08T03:33:32.506Z,6.70
2018-01-08T03:36:38.518Z,6.60
2018-01-08T03:39:44.226Z,6.60
2018-01-08T03:42:50.441Z,6.70
2018-01-08T03:45:56.510Z,6.70
2018-01-08T03:49:01.388Z,6.70
2018-01-08T03:52:06.554Z,6.70
2018-01-08T03:55:15.154Z,6.70
2018-01-08T03:58:20.343Z,6.60
2018-01-08T04:01:25.479Z,6.60
2018-01-08T04:04:31.034Z,6.60
2018-01-08T04:07:38.954Z,6.60
2018-01-08T04:10:44.218Z,6.60
2018-01-08T04:13:52.026Z,6.60
2018-01-08T04:16:57.323Z,6.60
2018-01-08T04:20:02.237Z,6.60
2018-01-08T04:23:08.106Z,6.60
2018-01-08T04:26:13.299Z,6.60
2018-01-08T04:29:18.626Z,6.60
2018-01-08T04:32:23.602Z,6.70
2018-01-08T04:35:30.082Z,6.70
2018-01-08T04:38:35.747Z,6.60
2018-01-08T04:41:42.734Z,6.60
2018-01-08T04:44:47.434Z,6.60
2018-01-08T04:47:53.868Z,6.70
2018-01-08T04:50:59.078Z,6.70
2018-01-08T04:54:04.693Z,6.70
2018-01-08T04:57:11.034Z,6.70
2018-01-08T05:00:16.746Z,6.70
2018-01-08T05:03:22.401Z,6.70
2018-01-08T05:06:27.737Z,6.70
2018-01-08T05:09:32.793Z,6.70
2018-01-08T05:12:40.029Z,6.70
2018-01-08T05:15:45.369Z,6.70
2018-01-08T05:18:49.945Z,6.70
2018-01-08T05:21:55.691Z,6.70
2018-01-08T05:25:00.654Z,6.70
2018-01-08T05:28:06.274Z,6.70
2018-01-08T05:31:12.395Z,6.70
2018-01-08T05:34:18.390Z,6.70
2018-01-08T05:37:23.414Z,6.70
2018-01-08T05:40:28.726Z,6.70
2018-01-08T05:43:33.849Z,6.70
2018-01-08T05:46:40.726Z,6.70
2018-01-08T05:49:47.818Z,6.70
2018-01-08T05:52:52.878Z,6.70
2018-01-08T05:55:58.136Z,6.60
2018-01-08T05:59:04.144Z,6.70
2018-01-08T06:02:09.101Z,6.70
2018-01-08T06:05:15.498Z,6.70
2018-01-08T06:08:21.306Z,6.70
2018-01-08T06:11:26.685Z,6.70
2018-01-08T06:14:32.076Z,6.70
2018-01-08T06:17:39.466Z,6.70
2018-01-08T06:20:44.935Z,6.70
2018-01-08T06:23:51.097Z,6.70
2018-01-08T06:26:57.589Z,6.70
2018-01-08T06:30:03.202Z,6.70
2018-01-08T06:33:08.242Z,6.60
2018-01-08T06:36:13.401Z,6.70
2018-01-08T06:39:19.150Z,6.70
2018-01-08T06:42:25.822Z,6.70
2018-01-08T06:45:31.203Z,6.70
2018-01-08T06:48:36.670Z,6.70
2018-01-08T06:51:42.494Z,6.60
2018-01-08T06:54:48.381Z,6.60
2018-01-08T06:57:53.696Z,6.70
2018-01-08T07:00:58.453Z,6.70
2018-01-08T07:04:03.680Z,6.60
2018-01-08T07:07:09.285Z,6.70
2018-01-08T07:10:14.198Z,6.70
2018-01-08T07:13:18.918Z,6.60
2018-01-08T07:16:25.239Z,6.70
2018-01-08T07:19:30.966Z,6.70
2018-01-08T07:22:36.737Z,6.70
2018-01-08T07:25:41.849Z,6.70
2018-01-08T07:28:46.874Z,6.70
2018-01-08T07:31:51.798Z,6.70
2018-01-08T07:34:57.898Z,6.70
2018-01-08T07:38:02.997Z,6.70
2018-01-08T07:41:08.793Z,6.70
2018-01-08T07:44:15.182Z,6.80
2018-01-08T07:47:20.737Z,6.80
2018-01-08T07:50:27.096Z,6.70
2018-01-08T07:53:32.770Z,6.80
2018-01-08T07:56:37.674Z,6.70
2018-01-08T07:59:42.610Z,6.80
2018-01-08T08:02:47.543Z,6.80
2018-01-08T08:05:52.614Z,6.70
2018-01-08T08:08:57.770Z,6.80
2018-01-08T08:12:03.110Z,6.70
2018-01-08T08:15:09.410Z,6.80
2018-01-08T08:18:14.775Z,6.80
2018-01-08T08:21:20.131Z,6.80
2018-01-08T08:24:26.408Z,6.80
2018-01-08T08:27:31.990Z,6.80
2018-01-08T08:30:38.019Z,6.70
2018-01-08T08:33:43.449Z,6.80
2018-01-08T08:36:48.997Z,6.80
2018-01-08T08:39:55.666Z,6.80
2018-01-08T08:43:00.545Z,6.80
2018-01-08T08:46:06.334Z,6.90
2018-01-08T08:49:11.459Z,6.90
2018-01-08T08:52:16.922Z,6.90
2018-01-08T08:55:22.629Z,6.90
2018-01-08T08:58:28.541Z,6.90
2018-01-08T09:01:34.252Z,6.90
2018-01-08T09:04:39.927Z,6.90
2018-01-08T09:07:45.346Z,7.00
2018-01-08T09:10:51.703Z,7.00
2018-01-08T09:13:57.194Z,7.00
2018-01-08T09:17:02.985Z,7.00
2018-01-08T09:20:08.502Z,7.00
2018-01-08T09:23:13.278Z,7.00
2018-01-08T09:26:18.246Z,7.00
2018-01-08T09:29:24.638Z,7.10
2018-01-08T09:32:29.498Z,7.10
2018-01-08T09:35:35.093Z,7.10
2018-01-08T09:38:40.304Z,7.10
2018-01-08T09:41:45.779Z,7.10
2018-01-08T09:44:50.907Z,7.20
2018-01-08T09:47:55.896Z,7.20
2018-01-08T09:51:01.531Z,7.20
2018-01-08T09:54:07.950Z,7.20
2018-01-08T09:57:13.762Z,7.20
2018-01-08T10:00:20.250Z,7.20
2018-01-08T10:03:37.942Z,7.20
2018-01-08T10:06:54.858Z,7.30
2018-01-08T10:10:11.694Z,7.30
2018-01-08T10:13:29.514Z,7.30
2018-01-08T10:16:47.765Z,7.40
2018-01-08T10:20:13.363Z,7.40
2018-01-08T10:23:19.070Z,7.50
2018-01-08T10:26:24.257Z,7.40
2018-01-08T10:29:30.753Z,7.40
2018-01-08T10:32:36.442Z,7.50
2018-01-08T10:35:41.873Z,7.50
2018-01-08T10:38:47.114Z,7.70
2018-01-08T10:41:58.006Z,7.70
2018-01-08T10:45:09.745Z,7.60
2018-01-08T10:48:22.210Z,7.70
2018-01-08T10:51:34.735Z,7.70
2018-01-08T10:54:41.025Z,7.60
2018-01-08T10:57:47.258Z,7.60
2018-01-08T11:00:52.533Z,7.60
2018-01-08T11:04:04.123Z,7.50
2018-01-08T11:07:09.465Z,7.50
2018-01-08T11:10:14.458Z,7.50
2018-01-08T11:13:19.891Z,7.60
2018-01-08T11:16:25.157Z,7.60
2018-01-08T11:19:31.305Z,7.60
2018-01-08T11:22:36.972Z,7.50
2018-01-08T11:25:42.033Z,7.60
2018-01-08T11:28:46.894Z,7.60
2018-01-08T11:31:52.442Z,7.70
2018-01-08T11:34:57.902Z,7.70
2018-01-08T11:38:03.309Z,7.80
2018-01-08T11:41:08.717Z,7.80
2018-01-08T11:44:14.260Z,7.80
2018-01-08T11:47:19.289Z,7.80
2018-01-08T11:50:24.459Z,7.80
2018-01-08T11:53:29.948Z,7.90
2018-01-08T11:56:35.637Z,7.90
2018-01-08T11:59:41.150Z,8.00
2018-01-08T12:02:46.989Z,8.00
2018-01-08T12:05:52.035Z,8.00
2018-01-08T12:08:57.698Z,8.10
2018-01-08T12:12:03.482Z,8.10
2018-01-08T12:15:08.526Z,8.00
2018-01-08T12:18:13.702Z,8.00
2018-01-08T12:21:19.353Z,8.10
2018-01-08T12:24:24.633Z,8.20
2018-01-08T12:27:29.826Z,8.20
2018-01-08T12:30:35.478Z,8.10
2018-01-08T12:33:41.238Z,8.10
2018-01-08T12:36:46.611Z,8.00
2018-01-08T12:39:53.017Z,8.10
2018-01-08T12:42:58.814Z,8.00
2018-01-08T12:46:04.538Z,8.10
2018-01-08T12:49:09.663Z,8.00
2018-01-08T12:52:15.385Z,8.10
2018-01-08T12:55:21.197Z,8.10
2018-01-08T12:58:26.266Z,8.10
2018-01-08T13:01:31.592Z,8.10
2018-01-08T13:04:36.651Z,8.10
2018-01-08T13:07:42.709Z,8.10
2018-01-08T13:10:47.885Z,8.10
2018-01-08T13:13:52.849Z,8.20
2018-01-08T13:16:58.208Z,8.20
2018-01-08T13:20:03.699Z,8.10
2018-01-08T13:23:08.870Z,8.10
2018-01-08T13:26:13.687Z,8.10
2018-01-08T13:29:18.731Z,8.10
2018-01-08T13:32:24.151Z,8.10
2018-01-08T13:35:29.322Z,8.10
2018-01-08T13:38:35.379Z,8.00
2018-01-08T13:41:41.820Z,8.00
2018-01-08T13:44:47.370Z,8.00
2018-01-08T13:47:52.805Z,8.10
2018-01-08T13:50:58.714Z,8.10
2018-01-08T13:54:03.782Z,8.10
2018-01-08T13:57:08.974Z,8.10
2018-01-08T14:00:14.554Z,8.10
2018-01-08T14:03:20.343Z,8.10
2018-01-08T14:06:25.558Z,8.10
2018-01-08T14:09:30.286Z,8.10
2018-01-08T14:12:35.825Z,8.10
2018-01-08T14:15:41.830Z,8.00
2018-01-08T14:18:47.002Z,8.00
2018-01-08T14:21:52.393Z,8.00
2018-01-08T14:24:57.589Z,8.00
2018-01-08T14:28:03.318Z,8.00
2018-01-08T14:31:09.278Z,8.00
2018-01-08T14:34:14.993Z,8.00
2018-01-08T14:37:20.564Z,7.90
2018-01-08T14:40:26.262Z,7.90
2018-01-08T14:43:31.592Z,7.90
2018-01-08T14:46:37.438Z,7.90
2018-01-08T14:49:42.882Z,7.90
2018-01-08T14:52:49.234Z,7.90
2018-01-08T14:55:54.401Z,7.90
2018-01-08T14:59:00.314Z,7.80
2018-01-08T15:02:06.391Z,7.80
2018-01-08T15:05:13.012Z,7.90
2018-01-08T15:08:17.852Z,7.80
2018-01-08T15:11:22.894Z,7.90
2018-01-08T15:14:28.762Z,7.90
2018-01-08T15:17:34.493Z,7.80
2018-01-08T15:20:40.094Z,7.90
2018-01-08T15:23:45.430Z,7.80
2018-01-08T15:26:50.918Z,7.80
2018-01-08T15:29:57.107Z,7.80
2018-01-08T15:33:03.422Z,7.70
2018-01-08T15:36:09.181Z,7.70
2018-01-08T15:39:15.026Z,7.70
2018-01-08T15:42:20.721Z,7.70
2018-01-08T15:45:25.586Z,7.60
2018-01-08T15:48:30.342Z,7.70
2018-01-08T15:51:36.476Z,7.60
2018-01-08T15:54:42.737Z,7.60
2018-01-08T15:57:47.875Z,7.60
2018-01-08T16:00:53.766Z,7.50
2018-01-08T16:03:58.705Z,7.50
2018-01-08T16:07:04.253Z,7.50
2018-01-08T16:10:09.807Z,7.50
2018-01-08T16:13:15.435Z,7.50
2018-01-08T16:16:22.163Z,7.50
2018-01-08T16:19:29.563Z,7.50
2018-01-08T16:22:35.226Z,7.50
2018-01-08T16:25:40.254Z,7.50
2018-01-08T16:28:46.126Z,7.50
2018-01-08T16:31:52.095Z,7.50
2018-01-08T16:34:57.545Z,7.40
2018-01-08T16:38:02.864Z,7.50
2018-01-08T16:41:07.657Z,7.50
2018-01-08T16:44:12.722Z,7.50
2018-01-08T16:47:17.751Z,7.50
2018-01-08T16:50:22.869Z,7.50
2018-01-08T16:53:28.354Z,7.50
2018-01-08T16:56:33.131Z,7.50
2018-01-08T16:59:39.342Z,7.50
2018-01-08T17:02:44.977Z,7.40
2018-01-08T17:05:50.074Z,7.40
2018-01-08T17:08:55.856Z,7.40
2018-01-08T17:12:01.709Z,7.40
2018-01-08T17:15:06.941Z,7.40
2018-01-08T17:18:12.219Z,7.40
2018-01-08T17:21:17.375Z,7.40
2018-01-08T17:24:22.826Z,7.40
2018-01-08T17:27:27.862Z,7.40
2018-01-08T17:30:32.921Z,7.40
2018-01-08T17:33:38.753Z,7.50
2018-01-08T17:36:44.721Z,7.40
2018-01-08T17:39:49.611Z,7.50
2018-01-08T17:42:55.837Z,7.50
2018-01-08T17:46:00.833Z,7.40
2018-01-08T17:49:06.726Z,7.50
2018-01-08T17:52:11.978Z,7.50
2018-01-08T17:55:17.178Z,7.50
2018-01-08T17:58:23.017Z,7.50
2018-01-08T18:01:28.074Z,7.50
2018-01-08T18:04:33.641Z,7.50
2018-01-08T18:07:39.467Z,7.50
2018-01-08T18:10:44.969Z,7.50
2018-01-08T18:13:49.882Z,7.50
2018-01-08T18:16:55.134Z,7.50
2018-01-08T18:20:00.431Z,7.50
2018-01-08T18:23:05.886Z,7.50
2018-01-08T18:26:11.557Z,7.50
2018-01-08T18:29:16.429Z,7.50
2018-01-08T18:32:22.841Z,7.50
2018-01-08T18:35:29.206Z,7.60
2018-01-08T18:38:34.474Z,7.50
2018-01-08T18:41:40.111Z,7.60
2018-01-08T18:44:45.882Z,7.60
2018-01-08T18:47:51.957Z,7.60
2018-01-08T18:50:57.458Z,7.60
2018-01-08T18:54:03.476Z,7.60
2018-01-08T18:57:08.154Z,7.50
2018-01-08T19:00:13.441Z,7.50
2018-01-08T19:03:18.362Z,7.50
2018-01-08T19:06:23.504Z,7.60
2018-01-08T19:09:30.004Z,7.50
2018-01-08T19:12:36.195Z,7.50
2018-01-08T19:15:41.158Z,7.50
2018-01-08T19:18:46.601Z,7.60
2018-01-08T19:21:51.915Z,7.50
2018-01-08T19:24:56.949Z,7.60
2018-01-08T19:28:02.617Z,7.60
2018-01-08T19:31:07.713Z,7.60
2018-01-08T19:34:12.944Z,7.60
2018-01-08T19:37:18.627Z,7.50
2018-01-08T19:40:24.548Z,7.50
2018-01-08T19:43:29.490Z,7.50
2018-01-08T19:46:34.459Z,7.50
2018-01-08T19:49:40.454Z,7.50
2018-01-08T19:52:45.263Z,7.50
2018-01-08T19:55:50.854Z,7.50
2018-01-08T19:58:56.378Z,7.50
2018-01-08T20:02:01.777Z,7.50
2018-01-08T20:05:07.642Z,7.50
2018-01-08T20:08:12.966Z,7.50
2018-01-08T20:11:19.474Z,7.50
2018-01-08T20:14:25.202Z,7.50
2018-01-08T20:17:31.406Z,7.50
2018-01-08T20:20:36.330Z,7.50
2018-01-08T20:23:41.742Z,7.50
2018-01-08T20:26:46.774Z,7.50
2018-01-08T20:29:52.823Z,7.40
2018-01-08T20:32:58.597Z,7.40
2018-01-08T20:36:04.118Z,7.30
2018-01-08T20:39:08.978Z,7.40
2018-01-08T20:42:14.490Z,7.40
2018-01-08T20:45:20.070Z,7.40
2018-01-08T20:48:25.437Z,7.40
2018-01-08T20:51:30.758Z,7.30
2018-01-08T20:54:35.682Z,7.40
2018-01-08T20:57:40.437Z,7.40
2018-01-08T21:00:46.032Z,7.40
2018-01-08T21:03:51.526Z,7.40
2018-01-08T21:06:57.486Z,7.40
2018-01-08T21:10:03.248Z,7.40
2018-01-08T21:13:08.943Z,7.40
2018-01-08T21:16:14.390Z,7.30
2018-01-08T21:19:19.841Z,7.30
2018-01-08T21:22:25.190Z,7.40
2018-01-08T21:25:30.674Z,7.40
2018-01-08T21:28:36.138Z,7.40
2018-01-08T21:31:41.082Z,7.40
2018-01-08T21:34:46.710Z,7.30
2018-01-08T21:37:51.803Z,7.30
2018-01-08T21:40:56.990Z,7.30
2018-01-08T21:44:02.934Z,7.30
2018-01-08T21:47:08.511Z,7.30
2018-01-08T21:50:14.382Z,7.30
2018-01-08T21:53:20.050Z,7.30
2018-01-08T21:56:25.210Z,7.30
2018-01-08T21:59:31.183Z,7.20
2018-01-08T22:02:36.235Z,7.20
2018-01-08T22:05:42.638Z,7.20
2018-01-08T22:08:48.553Z,7.20
2018-01-08T22:11:53.750Z,7.20
2018-01-08T22:14:59.338Z,7.10
2018-01-08T22:18:04.753Z,7.10
2018-01-08T22:21:10.165Z,7.20
2018-01-08T22:24:23.382Z,7.20
2018-01-08T22:27:28.577Z,7.00
2018-01-08T22:30:34.250Z,7.10
2018-01-08T22:33:40.802Z,7.10
2018-01-08T22:36:46.070Z,7.10
2018-01-08T22:39:51.628Z,7.10
2018-01-08T22:42:57.602Z,7.10
2018-01-08T22:46:03.206Z,7.10
2018-01-08T22:49:08.603Z,7.10
2018-01-08T22:52:14.542Z,7.10
2018-01-08T22:55:19.753Z,7.10
2018-01-08T22:58:24.962Z,7.10
2018-01-08T23:01:29.955Z,7.10
2018-01-08T23:04:36.446Z,7.00
2018-01-08T23:07:41.812Z,7.00
2018-01-08T23:10:48.313Z,7.00
2018-01-08T23:13:54.481Z,7.00
2018-01-08T23:17:00.205Z,6.80
2018-01-08T23:20:06.297Z,6.80
2018-01-08T23:23:11.578Z,6.80
2018-01-08T23:26:16.718Z,6.70
2018-01-08T23:29:21.905Z,6.60
2018-01-08T23:32:27.577Z,6.60
2018-01-08T23:35:33.758Z,6.60
2018-01-08T23:38:39.050Z,6.60
2018-01-08T23:41:45.181Z,6.70
2018-01-08T23:44:51.386Z,6.70
2018-01-08T23:47:57.846Z,6.70
2018-01-08T23:51:03.301Z,6.70
2018-01-08T23:54:09.290Z,6.70
2018-01-08T23:57:14.861Z,6.60
